Airfield :







YOU CAN JOIN US ON...

 
LOGIN :

Register | Disclaimer

   EN    FR    IT 

 









Legend :    VFR   Marginal VFR   IFR   Intensive IFR   Very Intensive IFR
Visi :
Ceiling :
>= 8 km
>= 3000ft
5 to 8 km
1000 to 3000 ft
1500m to 5 km
500 to 1000 ft
800 to 1500m
200 to 500 ft
< 800m
< 200 ft
Symbols :   Thunderstorms  Fog  Heavy snow  Heavy precipitations  Wind > 20 kt






- Airport Elevation : 56 ft
- IATA code : MCP


SBMQ - Macapa Int.

CURRENT METAR :
  • 020600Z 04003KT 9999 -RA FEW010 BKN100 26/26 Q1011

EXPIRED METARs :
  • 020500Z 04004KT 9999 FEW010 BKN100 26/26 Q1011
  • 020400Z 01003KT 9999 SCT012 BKN100 27/27 Q1012

TAF TAF SBMQ
Valid from the 02 at 06:00 until the 03 at 06:00 UTC


020300Z 0206/0306 35005KT 9999 SCT015 TN26/0210Z TX33/0218Z
BECMG 0215/0217 08012KT BKN017 FEW025TCU
BECMG 0303/0305 36005KT SCT017 RMK PHI



MET'MAP, your aeronautical weather chart ! - Copyright ORBIFLY December 2007 - Disclaimer

ORBIFLY MET'MAP TEAM :

Programming & Development : Alexandra Zaïnal
Concept & original design : Baudouin d'Aumeries
Assistance for programming : Marc-Olivier Méhu
Technical & hardware support : Manuel Goepfert

Contact : metmap@orbifly.com




SOURCES & CREDITS :

   NOAA